Carter, Montana
Current Conditions -  °F | °C
As of 3:56 PM on Wednesday 22 Oct 2014 (Local Time) from KGFA Reporting Station
Clear Clear  
Wind Chill: 59°   Ceiling: Unl
Heat Index: 59°   Visibility: 10mi
Dew Point: 32°   Wind: 25mph
Humidity: 37%   Direction: 220°SW
Pressure: 29.89"   Gusts: 37mph
Location:  47.78°N, 110.96°W
Report Text: KGFA 222156Z AUTO 22022G32KT 10SM CLR 15/00 A2989 RMK AO2 PK WND 22030/33 SLP135 T01480001
Loading
Personal Weather Stations






























Interactive Weather Map
Tropical Storm Tracking
New forecast layout! Learn more

10-Day Weather Forecast

Advertisements
Track Severe Weather on mobile